Belgrade Nikola Tesla Airport

LYBE · Central Serbia, Serbia

Storia di METAR LYBE · Belgrade Nikola Tesla Airport

Di seguito sono riportati i METAR degli ultimi giorni. Seleziona un anno per sfogliare i METAR più vecchi, dall'anno 2007 in poi.

7 dicembre 2023

Tempo Codice Tempo meteorologico Temp. Vista Base nuvolosa Vento METAR/SPECI
21:30
M
3 °C 10 km+ 2.700 ft 260° 260° 9 kt METAR LYBE 072030Z 26009KT 9999 SCT020 BKN027 03/01 Q1020 NOSIG
21:00
M
3 °C 10 km+ 2.700 ft 280° 280° 8 kt METAR LYBE 072000Z 28008KT 9999 -RA SCT020 BKN027 03/01 Q1020 NOSIG
20:30
M
3 °C 10 km+ 2.700 ft 280° 280° 10 kt METAR LYBE 071930Z 28010KT 9999 -RA SCT020 BKN027 03/01 Q1020 NOSIG
20:00
M
3 °C 10 km+ 2.700 ft 280° 280° 12 kt METAR LYBE 071900Z 28012KT 9999 BKN027 03/01 Q1020 NOSIG
19:30
M
3 °C 10 km+ 2.300 ft 270° 270° 9 kt METAR LYBE 071830Z 27009KT 9999 -RA SCT016 BKN023 03/01 Q1020 NOSIG
19:00
M
3 °C 10 km+ 2.300 ft 270° 270° 11 kt METAR LYBE 071800Z 27011KT 9999 SCT016 BKN023 03/01 Q1020 NOSIG
18:30
M
3 °C 10 km+ 2.300 ft 280° 280° 13 kt METAR LYBE 071730Z 28013KT 9999 BKN023 03/01 Q1020 NOSIG
18:00
M
4 °C 10 km+ 3.000 ft 280° 280° 12 kt METAR LYBE 071700Z 28012KT 9999 BKN030 04/01 Q1020 NOSIG
17:30
M
3 °C 10 km+ 3.000 ft 280° 280° 11 kt METAR LYBE 071630Z 28011KT 9999 FEW020 BKN030 03/01 Q1019 NOSIG
17:00
M
3 °C 10 km+ 2.300 ft 280° 280° 12 kt METAR LYBE 071600Z 28012KT 9999 BKN023 03/01 Q1019 NOSIG
16:30
M
4 °C 10 km+ 2.700 ft 270° 270° 11 kt METAR LYBE 071530Z 27011KT 9999 FEW015 BKN027 04/01 Q1019 NOSIG
16:00
M
4 °C 10 km+ 2.500 ft 270° 270° 11 kt METAR LYBE 071500Z 27011KT 9999 FEW015 BKN025 04/01 Q1019 NOSIG
15:30
M
4 °C 10 km+ 2.300 ft 270° 270° 12 kt METAR LYBE 071430Z 27012KT 9999 SCT015 BKN023 04/01 Q1019 NOSIG
15:00
M
4 °C 10 km+ 2.500 ft 270° 270° 12 kt METAR LYBE 071400Z 27012KT 9999 FEW015 BKN025 04/01 Q1018 NOSIG
14:30
M
4 °C 10 km+ 2.000 ft 280° 280° 12 kt METAR LYBE 071330Z 28012KT 9999 FEW013 OVC020 04/02 Q1018 NOSIG
14:00
M
4 °C 10 km+ 2.000 ft 280° 280° 13 kt METAR LYBE 071300Z 28013KT 9999 SCT013 OVC020 04/01 Q1018 NOSIG
13:30
M
4 °C 10 km+ 2.000 ft 280° 280° 12 kt METAR LYBE 071230Z 28012KT 9999 SCT013 OVC020 04/02 Q1018 NOSIG
13:00
M
4 °C 10 km+ 1.500 ft 270° 270° 13 - 28 kt METAR LYBE 071200Z 27013G28KT 9999 OVC015 04/01 Q1018 NOSIG
12:30
M
4 °C 10 km+ 1.300 ft 280° 280° 14 kt METAR LYBE 071130Z 28014KT 9999 OVC013 04/02 Q1018 NOSIG
12:00
M
4 °C 10 km+ 1.300 ft 270° 270° 11 kt METAR LYBE 071100Z 27011KT 9999 OVC013 04/02 Q1018 NOSIG
11:30
M
4 °C 10 km+ 1.300 ft 270° 270° 13 kt METAR LYBE 071030Z 27013KT 9999 OVC013 04/02 Q1018 NOSIG
11:00
M
4 °C 10 km+ 1.200 ft 260° 260° 8 kt METAR LYBE 071000Z 26008KT 9999 OVC012 04/02 Q1019 NOSIG
10:30
M
4 °C 10 km+ 1.200 ft 280° 280° 13 kt METAR LYBE 070930Z 28013KT 9999 BKN012 BKN020 04/02 Q1019 NOSIG
10:00
M
4 °C 10 km+ 1.000 ft 290° 290° 13 kt METAR LYBE 070900Z 29013KT 9999 BKN010 BKN020 04/02 Q1019 NOSIG
09:30
M
3 °C 10 km+ 1.000 ft 280° 280° 9 kt METAR LYBE 070830Z 28009KT 9999 BKN010 BKN018 03/02 Q1018 NOSIG
09:00
M
3 °C 10 km+ 1.800 ft 280° 280° 13 kt METAR LYBE 070800Z 28013KT 9999 SCT008 BKN018 03/02 Q1018 NOSIG
08:30
I
3 °C 10 km+ 700 ft 280° 280° 10 kt METAR LYBE 070730Z 28010KT 9999 OVC007 03/02 Q1018 NOSIG
08:00
I
3 °C 10 km+ 800 ft 270° 270° 10 kt METAR LYBE 070700Z 27010KT 9999 OVC008 03/01 Q1018 NOSIG
07:30
I
3 °C 10 km+ 800 ft 270° 270° 8 kt METAR LYBE 070630Z 27008KT 9999 OVC008 03/01 Q1018 NOSIG
07:00
I
3 °C 10 km+ 800 ft 270° 270° 8 kt METAR LYBE 070600Z 27008KT 9999 OVC008 03/01 Q1018 NOSIG
06:30
I
3 °C 10 km+ 800 ft 270° 270° 9 kt METAR LYBE 070530Z 27009KT 230V290 9999 OVC008 03/01 Q1017 NOSIG
06:00
I
3 °C 10 km+ 900 ft 230° 230° 7 kt METAR LYBE 070500Z 23007KT 9999 OVC009 03/01 Q1017 NOSIG
05:30
M
2 °C 10 km+ 1.100 ft 230° 230° 7 kt METAR LYBE 070430Z 23007KT 9999 OVC011 02/01 Q1017 NOSIG
05:00
M
2 °C 10 km+ 1.100 ft 240° 240° 7 kt METAR LYBE 070400Z 24007KT 9999 OVC011 02/01 Q1017 NOSIG
04:30
M
2 °C 8 km 1.100 ft 230° 230° 6 kt METAR LYBE 070330Z 23006KT 8000 -DZ OVC011 02/01 Q1016 NOSIG
04:00
M
2 °C 8 km 1.200 ft 240° 240° 4 kt METAR LYBE 070300Z 24004KT 8000 -DZ FEW008 OVC012 02/01 Q1016 NOSIG
03:30
M
2 °C 9 km 1.200 ft 220° 220° 6 kt METAR LYBE 070230Z 22006KT 9000 BKN012 02/01 Q1016 NOSIG
03:00
M
2 °C 9 km 1.000 ft 200° 200° 5 kt METAR LYBE 070200Z 20005KT 9000 BKN010 02/01 Q1016 NOSIG
02:30
M
2 °C 8 km 1.000 ft 200° 200° 5 kt METAR LYBE 070130Z 20005KT 160V230 8000 BKN010 02/01 Q1016 NOSIG
02:00
M
2 °C 8 km 1.200 ft 200° 200° 5 kt METAR LYBE 070100Z 20005KT 170V230 8000 BKN012 02/01 Q1016 NOSIG
01:30
M
2 °C 8 km 1.200 ft 210° 210° 5 kt METAR LYBE 070030Z 21005KT 170V230 8000 BKN012 02/01 Q1016 NOSIG
01:00
M
2 °C 8 km 1.400 ft 200° 200° 4 kt METAR LYBE 070000Z 20004KT 8000 BKN014 02/01 Q1016 NOSIG
00:30
M
2 °C 10 km+ 1.000 ft 240° 240° 5 kt METAR LYBE 062330Z 24005KT 200V260 9999 BKN010 02/01 Q1016 NOSIG
00:00
M
2 °C 10 km+ 1.100 ft 240° 240° 5 kt METAR LYBE 062300Z 24005KT 210V280 9999 BKN011 02/01 Q1016 NOSIG

6 dicembre 2023

Tempo Codice Tempo meteorologico Temp. Vista Base nuvolosa Vento METAR/SPECI
23:30
M
2 °C 10 km+ 1.200 ft 190° 190° 4 kt METAR LYBE 062230Z 19004KT 150V220 9999 BKN012 02/00 Q1016 NOSIG
23:00
M
1 °C 9 km 1.200 ft 190° 190° 5 kt METAR LYBE 062200Z 19005KT 160V220 9000 BKN012 01/00 Q1016 NOSIG
22:30
M
1 °C 8 km 1.000 ft 180° 180° 4 kt METAR LYBE 062130Z 18004KT 8000 BKN010 01/00 Q1016 NOSIG
22:00
I
1 °C 8 km 800 ft 190° 190° 4 kt METAR LYBE 062100Z 19004KT 8000 BKN008 01/00 Q1016 NOSIG
21:30
I
1 °C 7 km 700 ft 200° 200° 4 kt METAR LYBE 062030Z 20004KT 7000 BKN007 01/00 Q1015 NOSIG
21:00
I
1 °C 7 km 900 ft 210° 210° 5 kt METAR LYBE 062000Z 21005KT 7000 SCT006 BKN009 01/00 Q1015 NOSIG
20:30
I
1 °C 7 km 600 ft 200° 200° 4 kt METAR LYBE 061930Z 20004KT 7000 BKN006 01/00 Q1015 NOSIG
20:00
M
1 °C 6 km - 210° 210° 5 kt METAR LYBE 061900Z 21005KT 6000 SCT006 SCT045 01/00 Q1015 NOSIG
19:30
M
1 °C 7 km 4.500 ft 220° 220° 4 kt METAR LYBE 061830Z 22004KT 140V240 7000 -SN SCT004 BKN045 01/00 Q1015 NOSIG
19:00
M
1 °C 6 km 4.500 ft 220° 220° 5 kt METAR LYBE 061800Z 22005KT 6000 -SN SCT004 BKN045 01/00 Q1014 NOSIG
18:30
I
0 °C 4,5 km 3.500 ft 210° 210° 5 kt METAR LYBE 061730Z 21005KT 4500 -SN BR SCT003 BKN035 00/M00 Q1014 NOSIG
18:00
L
0 °C 4 km 300 ft 210° 210° 5 kt METAR LYBE 061700Z 21005KT 4000 -SN BR BKN003 BKN025 00/M00 Q1014 NOSIG
17:30
L
0 °C 3,5 km 300 ft 210° 210° 5 kt METAR LYBE 061630Z 21005KT 3500 -SN BR BKN003 BKN020 00/M00 Q1014 NOSIG
17:00
L
0 °C 3,5 km 300 ft 220° 220° 5 kt METAR LYBE 061600Z 22005KT 3500 -SN BR BKN003 BKN020 00/M00 Q1013 NOSIG
16:30
L
0 °C 3 km 200 ft 210° 210° 4 kt METAR LYBE 061530Z 21004KT 160V240 3000 -SN BR BKN002 BKN023 00/M00 Q1013 NOSIG
16:00
L
0 °C 1,5 km 200 ft 210° 210° 4 kt METAR LYBE 061500Z 21004KT 1500 -SN BR BKN002 BKN020 00/M00 Q1013 NOSIG
15:30
L
0 °C 1,5 km 200 ft 210° 210° 4 kt METAR LYBE 061430Z 21004KT 1500 -SN BR BKN002 BKN020 00/M00 Q1013 NOSIG
15:00
L
0 °C 1,5 km 200 ft Var Var 5 kt METAR LYBE 061400Z VRB05KT 1500 SN BKN002 BKN020 00/M00 Q1012 NOSIG
14:30
L
0 °C 1,5 km 200 ft 240° 240° 5 kt METAR LYBE 061330Z 24005KT 1500 SN BKN002 BKN020 00/00 Q1012 NOSIG
14:00
L
1 °C 2,5 km 300 ft 240° 240° 6 kt METAR LYBE 061300Z 24006KT 2500 -SN BKN003 BKN020 01/00 Q1012 NOSIG
13:30
I
2 °C 4 km 500 ft 240° 240° 7 kt METAR LYBE 061230Z 24007KT 4000 -RA BKN005 BKN023 02/01 Q1012 NOSIG
13:00
I
2 °C 5 km 800 ft 230° 230° 7 kt METAR LYBE 061200Z 23007KT 5000 -RA BKN008 BKN025 02/01 Q1012 NOSIG
12:30
M
3 °C 8 km 2.500 ft 230° 230° 6 kt METAR LYBE 061130Z 23006KT 180V260 8000 SCT009 BKN025 03/00 Q1012 BECMG BKN008 BKN023
12:00
M
3 °C 10 km+ 2.500 ft 220° 220° 5 kt METAR LYBE 061100Z 22005KT 9999 BKN025 03/00 Q1012 NOSIG
11:30
M
2 °C 10 km+ 2.700 ft 220° 220° 6 kt METAR LYBE 061030Z 22006KT 9999 BKN027 02/00 Q1012 NOSIG
11:00
M
2 °C 10 km+ 2.700 ft 220° 220° 6 kt METAR LYBE 061000Z 22006KT 9999 BKN027 02/00 Q1012 NOSIG
10:30
M
2 °C 10 km+ 2.500 ft 210° 210° 6 kt METAR LYBE 060930Z 21006KT 9999 BKN025 02/00 Q1012 NOSIG
10:00
M
3 °C 10 km+ 2.500 ft 200° 200° 4 kt METAR LYBE 060900Z 20004KT 130V230 9999 BKN025 03/M00 Q1012 NOSIG
09:30
M
3 °C 10 km+ 2.500 ft 170° 170° 4 kt METAR LYBE 060830Z 17004KT 140V200 9999 BKN025 03/M00 Q1011 NOSIG
09:00
M
3 °C 10 km+ 2.700 ft 160° 160° 3 kt METAR LYBE 060800Z 16003KT 140V200 9999 BKN027 03/M00 Q1011 NOSIG
08:30
V
4 °C 10 km+ - 140° 140° 7 kt METAR LYBE 060730Z 14007KT 9999 SCT027 04/00 Q1011 NOSIG
08:00
V
3 °C 10 km+ - 130° 130° 8 kt METAR LYBE 060700Z 13008KT 9999 SCT027 03/M00 Q1011 NOSIG
07:30
V
2 °C 10 km+ - 130° 130° 5 kt METAR LYBE 060630Z 13005KT CAVOK 02/M01 Q1011 NOSIG
07:00
V
1 °C 10 km+ - 100° 100° 6 kt METAR LYBE 060600Z 10006KT CAVOK 01/M01 Q1010 NOSIG
06:30
V
1 °C 10 km+ - 090° 090° 7 kt METAR LYBE 060530Z 09007KT CAVOK 01/M01 Q1010 NOSIG
06:00
V
1 °C 10 km+ - 090° 090° 6 kt METAR LYBE 060500Z 09006KT CAVOK 01/M01 Q1010 NOSIG
05:30
V
1 °C 10 km+ - 080° 080° 7 kt METAR LYBE 060430Z 08007KT CAVOK 01/M01 Q1010 NOSIG
05:00
V
2 °C 10 km+ - 100° 100° 7 kt METAR LYBE 060400Z 10007KT CAVOK 02/M01 Q1009 NOSIG
04:30
V
3 °C 10 km+ - 090° 090° 5 kt METAR LYBE 060330Z 09005KT CAVOK 03/M01 Q1009 NOSIG
04:00
V
3 °C 10 km+ - 090° 090° 7 kt METAR LYBE 060300Z 09007KT CAVOK 03/M01 Q1009 NOSIG
03:30
V
3 °C 10 km+ - 110° 110° 9 kt METAR LYBE 060230Z 11009KT CAVOK 03/M01 Q1010 NOSIG
03:00
V
4 °C 10 km+ - 120° 120° 9 kt METAR LYBE 060200Z 12009KT CAVOK 04/M01 Q1010 NOSIG
02:30
V
4 °C 10 km+ - 120° 120° 14 kt METAR LYBE 060130Z 12014KT CAVOK 04/M01 Q1010 NOSIG
02:00
V
3 °C 10 km+ - 100° 100° 9 kt METAR LYBE 060100Z 10009KT CAVOK 03/M01 Q1010 NOSIG
01:30
V
2 °C 10 km+ - 100° 100° 8 kt METAR LYBE 060030Z 10008KT CAVOK 02/M01 Q1010 NOSIG
01:00
V
3 °C 10 km+ - 110° 110° 9 kt METAR LYBE 060000Z 11009KT CAVOK 03/M01 Q1010 NOSIG
00:30
V
3 °C 10 km+ - 110° 110° 13 kt METAR LYBE 052330Z 11013KT CAVOK 03/M01 Q1010 NOSIG
00:00
V
3 °C 10 km+ - 120° 120° 11 kt METAR LYBE 052300Z 12011KT CAVOK 03/M02 Q1011 NOSIG

5 dicembre 2023

Tempo Codice Tempo meteorologico Temp. Vista Base nuvolosa Vento METAR/SPECI
23:30
V
3 °C 10 km+ - 120° 120° 14 kt METAR LYBE 052230Z 12014KT CAVOK 03/M01 Q1011 NOSIG
23:00
V
3 °C 10 km+ - 130° 130° 14 kt METAR LYBE 052200Z 13014KT CAVOK 03/M02 Q1011 NOSIG
22:30
V
2 °C 10 km+ - 060° 060° 4 kt METAR LYBE 052130Z 06004KT 350V120 CAVOK 02/M02 Q1011 NOSIG
22:00
V
2 °C 10 km+ - 090° 090° 9 kt METAR LYBE 052100Z 09009KT CAVOK 02/M01 Q1011 NOSIG
21:30
V
2 °C 10 km+ - 100° 100° 13 kt METAR LYBE 052030Z 10013KT CAVOK 02/M01 Q1011 NOSIG
21:00
V
2 °C 10 km+ - 100° 100° 8 kt METAR LYBE 052000Z 10008KT CAVOK 02/M01 Q1012 NOSIG
20:30
V
2 °C 10 km+ - 090° 090° 5 kt METAR LYBE 051930Z 09005KT CAVOK 02/M01 Q1012 NOSIG
20:00
V
2 °C 10 km+ - 100° 100° 6 kt METAR LYBE 051900Z 10006KT CAVOK 02/M01 Q1012 NOSIG
19:30
V
2 °C 10 km+ - 080° 080° 5 kt METAR LYBE 051830Z 08005KT CAVOK 02/M01 Q1012 NOSIG
19:00
V
3 °C 10 km+ - 110° 110° 7 kt METAR LYBE 051800Z 11007KT CAVOK 03/M01 Q1012 NOSIG
18:30
V
2 °C 10 km+ - 100° 100° 9 kt METAR LYBE 051730Z 10009KT CAVOK 02/M01 Q1012 NOSIG
18:00
V
3 °C 10 km+ - 100° 100° 7 kt METAR LYBE 051700Z 10007KT CAVOK 03/M01 Q1013 NOSIG
17:30
V
3 °C 10 km+ - 100° 100° 9 kt METAR LYBE 051630Z 10009KT CAVOK 03/M00 Q1013 NOSIG
17:00
V
4 °C 10 km+ - 100° 100° 10 kt METAR LYBE 051600Z 10010KT CAVOK 04/M00 Q1013 NOSIG
16:30
V
4 °C 10 km+ - 090° 090° 10 kt METAR LYBE 051530Z 09010KT CAVOK 04/M00 Q1013 NOSIG
16:00
V
6 °C 10 km+ - 110° 110° 9 kt METAR LYBE 051500Z 11009KT CAVOK 06/01 Q1013 NOSIG
15:30
V
7 °C 10 km+ - 120° 120° 12 kt METAR LYBE 051430Z 12012KT CAVOK 07/01 Q1013 NOSIG
15:00
V
8 °C 10 km+ - 120° 120° 13 kt METAR LYBE 051400Z 12013KT CAVOK 08/00 Q1013 NOSIG
14:30
V
8 °C 10 km+ - 130° 130° 11 kt METAR LYBE 051330Z 13011KT CAVOK 08/00 Q1014 NOSIG
14:00
V
9 °C 10 km+ - 120° 120° 11 kt METAR LYBE 051300Z 12011KT CAVOK 09/00 Q1014 NOSIG
13:30
V
9 °C 10 km+ - 130° 130° 11 kt METAR LYBE 051230Z 13011KT CAVOK 09/M00 Q1014 NOSIG
13:00
V
9 °C 10 km+ - 140° 140° 12 kt METAR LYBE 051200Z 14012KT CAVOK 09/M00 Q1014 NOSIG
12:30
V
8 °C 10 km+ - 130° 130° 12 kt METAR LYBE 051130Z 13012KT CAVOK 08/M01 Q1015 NOSIG
12:00
V
8 °C 10 km+ - 130° 130° 11 kt METAR LYBE 051100Z 13011KT CAVOK 08/M01 Q1015 NOSIG
11:30
V
8 °C 10 km+ - 130° 130° 12 kt METAR LYBE 051030Z 13012KT CAVOK 08/M00 Q1015 NOSIG
11:00
V
7 °C 10 km+ - 130° 130° 15 kt METAR LYBE 051000Z 13015KT CAVOK 07/M00 Q1015 NOSIG
10:30
V
6 °C 10 km+ - 130° 130° 13 kt METAR LYBE 050930Z 13013KT CAVOK 06/M01 Q1016 NOSIG
10:00
V
5 °C 10 km+ - 130° 130° 13 kt METAR LYBE 050900Z 13013KT CAVOK 05/M01 Q1016 NOSIG
09:30
V
5 °C 10 km+ - 130° 130° 13 kt METAR LYBE 050830Z 13013KT CAVOK 05/M01 Q1016 NOSIG
09:00
V
4 °C 10 km+ - 130° 130° 11 kt METAR LYBE 050800Z 13011KT CAVOK 04/M01 Q1016 NOSIG
08:30
V
3 °C 10 km+ - 120° 120° 11 kt METAR LYBE 050730Z 12011KT CAVOK 03/M02 Q1017 NOSIG
08:00
V
3 °C 10 km+ - 130° 130° 9 kt METAR LYBE 050700Z 13009KT CAVOK 03/M02 Q1017 NOSIG
07:30
V
3 °C 10 km+ - 130° 130° 10 kt METAR LYBE 050630Z 13010KT CAVOK 03/M02 Q1017 NOSIG
07:00
V
3 °C 10 km+ - 140° 140° 11 kt METAR LYBE 050600Z 14011KT CAVOK 03/M02 Q1017 NOSIG